Time;durP1;ratioP1;P1;durP2;ratioP2;P2;SDS_P1;SDS_P2;PMS_P1;PMS_P2;Temp;Humidity;BMP_temperature;BMP_pressure;BME280_temperature;BME280_humidity;BME280_pressure;Samples;Min_cycle;Max_cycle;Signal;HPM_P1;HPM_P2
2023/06/09 00:01:35;;;;;;;6.78;4.43;;;19.60;99.90;;;;;;5052289;28;20102;-47
2023/06/09 00:04:06;;;;;;;6.32;4.10;;;19.60;99.90;;;;;;5052641;28;20029;-48
2023/06/09 00:06:33;;;;;;;6.63;4.28;;;19.60;99.90;;;;;;5052322;28;20032;-48
2023/06/09 00:08:59;;;;;;;6.22;3.83;;;19.50;99.90;;;;;;5052500;28;20033;-48
2023/06/09 00:11:25;;;;;;;6.13;3.90;;;19.50;99.90;;;;;;5052037;28;20078;-50
2023/06/09 00:13:51;;;;;;;6.03;4.03;;;19.40;99.90;;;;;;5052328;28;20092;-48
2023/06/09 00:16:17;;;;;;;7.20;4.28;;;19.40;99.90;;;;;;5052405;28;20033;-49
2023/06/09 00:18:45;;;;;;;8.02;4.57;;;19.40;99.90;;;;;;5052467;28;20570;-48
2023/06/09 00:21:15;;;;;;;7.15;4.05;;;19.30;99.90;;;;;;5052106;28;20025;-48
2023/06/09 00:23:44;;;;;;;7.93;4.15;;;19.30;99.90;;;;;;5052272;28;20358;-50
2023/06/09 00:26:10;;;;;;;6.90;4.53;;;19.30;99.90;;;;;;5051940;28;20036;-48
2023/06/09 00:28:36;;;;;;;6.47;4.13;;;19.20;99.90;;;;;;5051994;28;20068;-48
2023/06/09 00:31:02;;;;;;;5.45;3.92;;;19.20;99.90;;;;;;5052164;28;20059;-49
2023/06/09 00:33:28;;;;;;;7.13;4.35;;;19.20;99.90;;;;;;5051980;28;20025;-47
2023/06/09 00:35:53;;;;;;;7.65;4.75;;;19.20;99.90;;;;;;5033931;28;20453;-47
2023/06/09 00:38:19;;;;;;;9.60;5.20;;;19.10;99.90;;;;;;5034064;28;20040;-49
2023/06/09 00:40:45;;;;;;;6.22;4.40;;;19.10;99.90;;;;;;5051711;28;20610;-47
2023/06/09 00:43:11;;;;;;;7.47;4.63;;;19.10;99.90;;;;;;5051693;28;20372;-47
2023/06/09 00:45:37;;;;;;;8.18;5.00;;;19.00;99.90;;;;;;5051604;28;20171;-47
2023/06/09 00:48:03;;;;;;;8.95;4.30;;;19.00;99.90;;;;;;5051696;28;20671;-47
2023/06/09 00:50:29;;;;;;;6.63;4.40;;;19.00;99.90;;;;;;5033671;28;20478;-49
2023/06/09 00:52:56;;;;;;;8.50;4.70;;;19.00;99.90;;;;;;5051711;28;20111;-48
2023/06/09 00:55:23;;;;;;;7.22;4.45;;;19.00;99.90;;;;;;5033595;28;20037;-47
2023/06/09 00:57:55;;;;;;;6.93;4.53;;;19.00;99.90;;;;;;5033554;28;20040;-48
2023/06/09 01:00:31;;;;;;;7.20;4.60;;;18.90;99.90;;;;;;5033667;28;20505;-50
2023/06/09 01:03:00;;;;;;;7.50;4.65;;;18.80;99.90;;;;;;5033819;28;20400;-48
2023/06/09 01:05:37;;;;;;;8.98;4.75;;;18.80;99.90;;;;;;5051891;28;20037;-50
2023/06/09 01:08:16;;;;;;;7.82;4.85;;;18.70;99.90;;;;;;5051912;28;20029;-47
2023/06/09 01:10:49;;;;;;;8.23;5.07;;;18.60;99.90;;;;;;5051548;28;20041;-48
2023/06/09 01:13:41;;;;;;;8.38;4.63;;;18.60;99.90;;;;;;5051348;28;20489;-51
2023/06/09 01:16:12;;;;;;;7.47;4.80;;;18.60;99.90;;;;;;5051125;28;20094;-50
2023/06/09 01:18:42;;;;;;;9.48;4.50;;;18.50;99.90;;;;;;5051191;28;20036;-47
2023/06/09 01:21:41;;;;;;;8.90;5.28;;;18.50;99.90;;;;;;5051125;28;20099;-51
2023/06/09 01:24:21;;;;;;;;;;;18.50;99.90;;;;;;5051696;28;20059;-48
2023/06/09 01:26:50;;;;;;;8.07;5.20;;;18.30;99.90;;;;;;5050992;28;19944;-48
2023/06/09 01:29:19;;;;;;;9.10;5.10;;;18.30;99.90;;;;;;5033160;28;20036;-52
2023/06/09 01:31:46;;;;;;;9.10;5.22;;;18.30;99.90;;;;;;5032915;28;20035;-50
2023/06/09 01:34:13;;;;;;;8.05;5.32;;;18.20;99.90;;;;;;5050887;28;20390;-49
2023/06/09 01:36:41;;;;;;;10.02;4.93;;;18.20;99.90;;;;;;5050696;28;20029;-50
2023/06/09 01:39:07;;;;;;;7.72;4.70;;;18.20;99.90;;;;;;5050894;28;20270;-50
2023/06/09 01:41:33;;;;;;;9.93;5.20;;;18.20;99.90;;;;;;5050574;28;20032;-50
2023/06/09 01:43:59;;;;;;;7.90;5.20;;;18.20;99.90;;;;;;5032933;28;20033;-50
2023/06/09 01:46:25;;;;;;;5.68;4.30;;;18.10;99.90;;;;;;5032701;28;20040;-49
2023/06/09 01:49:07;;;;;;;6.55;4.85;;;18.20;99.90;;;;;;5032933;28;20036;-52
2023/06/09 01:51:49;;;;;;;7.55;5.10;;;18.10;99.90;;;;;;5032653;28;20054;-48
2023/06/09 01:54:40;;;;;;;9.18;5.15;;;18.10;99.90;;;;;;5050914;28;20028;-48
2023/06/09 01:57:08;;;;;;;7.70;4.57;;;18.00;99.90;;;;;;5032763;28;20629;-48
2023/06/09 01:59:43;;;;;;;8.95;5.40;;;18.00;99.90;;;;;;5032782;28;20024;-47
2023/06/09 02:02:11;;;;;;;7.32;4.93;;;18.00;99.90;;;;;;5050329;28;20582;-49
2023/06/09 02:04:39;;;;;;;7.10;5.07;;;18.00;99.90;;;;;;5032754;28;20497;-50
2023/06/09 02:07:06;;;;;;;9.38;4.93;;;17.90;99.90;;;;;;5032652;28;20029;-48
2023/06/09 02:09:33;;;;;;;6.93;4.80;;;17.90;99.90;;;;;;5050460;28;20032;-47
2023/06/09 02:12:00;;;;;;;9.15;4.82;;;17.90;99.90;;;;;;5032497;28;20044;-46
2023/06/09 02:14:33;;;;;;;7.47;5.03;;;17.90;99.90;;;;;;5032544;28;20029;-48
2023/06/09 02:17:00;;;;;;;6.90;4.78;;;17.90;99.90;;;;;;5050323;28;20458;-52
2023/06/09 02:19:26;;;;;;;8.32;5.05;;;17.90;99.90;;;;;;5054514;28;20044;-47
2023/06/09 02:21:51;;;;;;;8.85;5.50;;;17.80;99.90;;;;;;5036304;28;20025;-46
2023/06/09 02:24:18;;;;;;;8.65;4.63;;;17.80;99.90;;;;;;5036733;28;20364;-49
2023/06/09 02:26:44;;;;;;;8.18;5.07;;;17.80;99.90;;;;;;5054241;28;20025;-48
2023/06/09 02:29:10;;;;;;;10.90;5.25;;;17.80;99.90;;;;;;5054403;28;20119;-48
2023/06/09 02:31:36;;;;;;;11.05;4.97;;;17.80;99.90;;;;;;5053998;28;20036;-48
2023/06/09 02:34:02;;;;;;;8.40;5.13;;;17.80;99.90;;;;;;5036405;28;20033;-49
2023/06/09 02:36:28;;;;;;;9.75;4.78;;;17.70;99.90;;;;;;5036055;28;20033;-47
2023/06/09 02:38:54;;;;;;;8.60;5.47;;;17.70;99.90;;;;;;5036366;28;20027;-48
2023/06/09 02:41:20;;;;;;;7.75;4.80;;;17.70;99.90;;;;;;5053952;28;20055;-47
2023/06/09 02:43:46;;;;;;;8.93;5.45;;;17.60;99.90;;;;;;5036467;28;20063;-49
2023/06/09 02:46:12;;;;;;;8.25;4.82;;;17.70;99.90;;;;;;5036001;28;20115;-49
2023/06/09 02:48:37;;;;;;;8.75;4.70;;;17.70;99.90;;;;;;5036176;28;20060;-48
2023/06/09 02:51:04;;;;;;;10.95;5.32;;;17.70;99.90;;;;;;5035879;28;20051;-48
2023/06/09 02:53:30;;;;;;;7.93;4.85;;;17.60;99.90;;;;;;5035862;28;20485;-48
2023/06/09 02:55:59;;;;;;;;;;;17.60;99.90;;;;;;5036385;28;20037;-48
2023/06/09 02:58:30;;;;;;;8.38;4.65;;;17.60;99.90;;;;;;5035979;28;19913;-47
2023/06/09 03:00:56;;;;;;;10.27;5.57;;;17.50;99.90;;;;;;5035681;28;20036;-48
2023/06/09 03:03:22;;;;;;;8.70;5.25;;;17.50;99.90;;;;;;5035666;28;20036;-50
2023/06/09 03:05:49;;;;;;;10.10;5.10;;;17.50;99.90;;;;;;5035590;28;20221;-48
2023/06/09 03:08:15;;;;;;;7.18;4.63;;;17.50;99.90;;;;;;5035757;28;20021;-47
2023/06/09 03:10:42;;;;;;;8.00;4.93;;;17.50;99.90;;;;;;5035543;28;20032;-48
2023/06/09 03:13:10;;;;;;;8.33;5.10;;;17.50;99.90;;;;;;5035527;28;20059;-50
2023/06/09 03:15:40;;;;;;;8.52;5.10;;;17.50;99.90;;;;;;5035389;28;20471;-47
2023/06/09 03:18:10;;;;;;;9.73;5.15;;;17.50;99.90;;;;;;5035728;28;20113;-49
2023/06/09 03:20:36;;;;;;;8.82;5.30;;;17.40;99.90;;;;;;5035388;28;20477;-48
2023/06/09 03:23:08;;;;;;;7.72;5.53;;;17.40;99.90;;;;;;5035496;28;20029;-49
2023/06/09 03:25:34;;;;;;;11.02;5.70;;;17.40;99.90;;;;;;5035292;28;20139;-50
2023/06/09 03:28:00;;;;;;;10.52;5.60;;;17.30;99.90;;;;;;5053435;28;20068;-47
2023/06/09 03:30:27;;;;;;;10.38;6.15;;;17.30;99.90;;;;;;5033837;28;20045;-49
2023/06/09 03:32:52;;;;;;;8.23;5.68;;;17.30;99.90;;;;;;5035359;28;20044;-48
2023/06/09 03:35:18;;;;;;;9.10;5.43;;;17.20;99.90;;;;;;5035354;28;20040;-48
2023/06/09 03:37:44;;;;;;;9.75;5.57;;;17.30;99.90;;;;;;5053103;28;20029;-52
2023/06/09 03:40:10;;;;;;;10.05;6.07;;;17.30;99.90;;;;;;5035427;28;20029;-50
2023/06/09 03:42:36;;;;;;;9.07;5.60;;;17.20;99.90;;;;;;5053286;28;20025;-48
2023/06/09 03:45:02;;;;;;;9.02;5.93;;;17.20;99.90;;;;;;5035412;28;20455;-48
2023/06/09 03:47:31;;;;;;;9.68;5.50;;;17.20;99.90;;;;;;5035142;28;20041;-50
2023/06/09 03:49:57;;;;;;;8.80;6.13;;;17.20;99.90;;;;;;5035187;28;20044;-50
2023/06/09 03:52:26;;;;;;;12.60;6.63;;;17.20;99.90;;;;;;5034721;28;20087;-48
2023/06/09 03:54:52;;;;;;;;;;;17.20;99.90;;;;;;5035542;28;20033;-50
2023/06/09 03:57:18;;;;;;;9.45;5.47;;;17.30;99.90;;;;;;5034764;28;19915;-49
2023/06/09 03:59:44;;;;;;;9.15;5.88;;;17.30;99.90;;;;;;5034894;28;20029;-49
2023/06/09 04:02:10;;;;;;;10.77;6.05;;;17.30;99.90;;;;;;5034572;28;20502;-48
2023/06/09 04:04:36;;;;;;;12.45;6.53;;;17.40;99.90;;;;;;5034715;28;20128;-47
2023/06/09 04:07:03;;;;;;;11.02;6.07;;;17.30;99.90;;;;;;5034486;28;20032;-47
2023/06/09 04:09:32;;;;;;;9.32;5.47;;;17.30;99.90;;;;;;5052541;28;20385;-47
2023/06/09 04:11:58;;;;;;;8.45;6.28;;;17.30;99.90;;;;;;5034520;28;20393;-47
2023/06/09 04:14:24;;;;;;;11.18;6.85;;;17.30;99.90;;;;;;5034402;28;20032;-48
2023/06/09 04:16:50;;;;;;;9.00;5.82;;;17.20;99.90;;;;;;5034401;28;20033;-48
2023/06/09 04:19:16;;;;;;;10.13;5.60;;;17.20;99.90;;;;;;5034432;28;20039;-48
2023/06/09 04:21:45;;;;;;;10.93;6.57;;;17.30;99.90;;;;;;5033945;28;20048;-48
2023/06/09 04:24:11;;;;;;;9.93;5.88;;;17.30;99.90;;;;;;5034582;28;20025;-49
2023/06/09 04:26:39;;;;;;;13.18;6.82;;;17.30;99.90;;;;;;5034220;28;20122;-51
2023/06/09 04:29:09;;;;;;;10.90;6.13;;;17.30;99.90;;;;;;5034383;28;20052;-47
2023/06/09 04:31:42;;;;;;;9.27;6.22;;;17.30;99.90;;;;;;5033862;28;20033;-48
2023/06/09 04:34:12;;;;;;;9.90;6.03;;;17.40;99.90;;;;;;5034032;28;20040;-50
2023/06/09 04:36:44;;;;;;;10.73;6.40;;;17.40;99.90;;;;;;5033805;28;20061;-50
2023/06/09 04:39:12;;;;;;;8.93;6.10;;;17.50;99.90;;;;;;5034039;28;20032;-49
2023/06/09 04:41:38;;;;;;;9.23;5.75;;;17.40;99.90;;;;;;5033300;28;20512;-50
2023/06/09 04:44:05;;;;;;;10.27;5.78;;;17.50;99.90;;;;;;5033913;28;20029;-49
2023/06/09 04:46:37;;;;;;;10.65;6.45;;;17.50;99.90;;;;;;5033593;28;20370;-48
2023/06/09 04:49:10;;;;;;;;;;;17.50;99.90;;;;;;5034389;28;20401;-49
2023/06/09 04:51:46;;;;;;;10.43;5.95;;;17.60;99.90;;;;;;5033586;28;19947;-49
2023/06/09 04:54:20;;;;;;;;;;;17.60;99.90;;;;;;5034457;28;20024;-49
2023/06/09 04:56:52;;;;;;;10.13;5.70;;;17.70;99.90;;;;;;5050001;28;19951;-49
2023/06/09 04:59:18;;;;;;;9.50;6.72;;;17.70;99.90;;;;;;5033643;28;20029;-49
2023/06/09 05:01:47;;;;;;;11.20;6.47;;;17.70;99.90;;;;;;5051332;28;20021;-52
2023/06/09 05:04:13;;;;;;;;;;;17.70;99.90;;;;;;5034133;28;20029;-49
2023/06/09 05:06:40;;;;;;;9.70;5.85;;;17.80;99.90;;;;;;5033338;28;19919;-48
2023/06/09 05:09:06;;;;;;;12.10;6.47;;;17.90;99.90;;;;;;5051449;28;20037;-51
2023/06/09 05:11:33;;;;;;;8.90;5.55;;;17.90;99.90;;;;;;5033176;28;20029;-47
2023/06/09 05:13:59;;;;;;;11.05;6.53;;;17.90;99.90;;;;;;5033178;28;20512;-51
2023/06/09 05:16:27;;;;;;;10.32;6.53;;;18.00;99.90;;;;;;5033143;28;20032;-48
2023/06/09 05:18:53;;;;;;;11.70;7.00;;;18.00;99.90;;;;;;5033265;28;20032;-47
2023/06/09 05:21:21;;;;;;;11.10;6.80;;;18.10;99.90;;;;;;5033038;28;20040;-48
2023/06/09 05:23:48;;;;;;;11.30;6.57;;;18.10;99.90;;;;;;5033219;28;20057;-51
2023/06/09 05:26:13;;;;;;;12.02;7.30;;;18.10;99.90;;;;;;5051287;28;20111;-50
2023/06/09 05:28:39;;;;;;;12.02;7.00;;;18.20;99.90;;;;;;5051172;28;20104;-51
2023/06/09 05:31:05;;;;;;;11.30;6.28;;;18.20;99.90;;;;;;5050726;28;20044;-52
2023/06/09 05:33:32;;;;;;;9.95;7.07;;;18.30;99.90;;;;;;5033036;28;20128;-48
2023/06/09 05:35:58;;;;;;;10.27;6.60;;;18.30;99.90;;;;;;5032819;28;20131;-50
2023/06/09 05:38:25;;;;;;;9.32;6.03;;;18.30;99.90;;;;;;5033050;28;20144;-48
2023/06/09 05:40:54;;;;;;;13.20;6.45;;;18.40;99.90;;;;;;5051044;28;20035;-51
2023/06/09 05:43:20;;;;;;;11.18;6.43;;;18.40;99.90;;;;;;5050819;28;20444;-49
2023/06/09 05:45:46;;;;;;;11.80;6.95;;;18.60;99.90;;;;;;5050584;28;20025;-52
2023/06/09 05:48:12;;;;;;;10.55;6.97;;;18.60;99.90;;;;;;5050825;28;20028;-48
2023/06/09 05:50:37;;;;;;;12.48;7.28;;;18.70;99.90;;;;;;5050477;28;20033;-51
2023/06/09 05:53:04;;;;;;;13.55;7.40;;;18.80;99.90;;;;;;5049842;28;20035;-48
2023/06/09 05:55:29;;;;;;;9.02;6.40;;;18.90;99.90;;;;;;5050306;28;20555;-48
2023/06/09 05:57:56;;;;;;;11.02;6.50;;;19.00;99.90;;;;;;5050677;28;20025;-50
2023/06/09 06:00:29;;;;;;;10.88;6.65;;;19.10;99.90;;;;;;5050457;28;20507;-49
2023/06/09 06:02:55;;;;;;;12.43;6.32;;;19.20;99.90;;;;;;5050521;28;20037;-48
2023/06/09 06:05:21;;;;;;;9.18;6.10;;;19.30;99.90;;;;;;5050721;28;20024;-51
2023/06/09 06:07:46;;;;;;;9.90;6.30;;;19.40;99.90;;;;;;5050391;28;20382;-49
2023/06/09 06:10:12;;;;;;;9.57;6.20;;;19.60;99.90;;;;;;5050362;28;20083;-48
2023/06/09 06:12:39;;;;;;;12.52;7.95;;;19.60;99.90;;;;;;5050442;28;20389;-48
2023/06/09 06:15:05;;;;;;;11.45;7.53;;;19.80;99.90;;;;;;5050448;28;20494;-51
2023/06/09 06:17:31;;;;;;;12.82;6.63;;;19.90;99.90;;;;;;5050120;28;20036;-49
2023/06/09 06:19:57;;;;;;;11.55;6.63;;;20.00;99.90;;;;;;5050394;28;20025;-48
2023/06/09 06:22:23;;;;;;;8.65;5.82;;;20.20;99.90;;;;;;5050176;28;20022;-47
2023/06/09 06:24:49;;;;;;;10.32;6.43;;;20.30;99.90;;;;;;5050375;28;20033;-51
2023/06/09 06:27:15;;;;;;;10.45;7.00;;;20.50;99.90;;;;;;5050378;28;20390;-49
2023/06/09 06:29:40;;;;;;;10.40;7.13;;;20.50;99.90;;;;;;5050427;28;20123;-49
2023/06/09 06:32:07;;;;;;;11.07;6.18;;;20.70;99.90;;;;;;5049978;28;20029;-49
2023/06/09 06:34:33;;;;;;;9.00;6.00;;;20.70;99.90;;;;;;5050438;28;20409;-49
2023/06/09 06:36:58;;;;;;;14.07;6.60;;;20.90;99.90;;;;;;5050092;28;20025;-48
2023/06/09 06:39:24;;;;;;;11.77;5.93;;;21.00;99.90;;;;;;5050301;28;20390;-48
2023/06/09 06:41:50;;;;;;;10.57;6.63;;;21.10;99.90;;;;;;5050393;28;20033;-47
2023/06/09 06:44:15;;;;;;;11.10;7.07;;;21.20;99.90;;;;;;5050499;28;20516;-47
2023/06/09 06:46:41;;;;;;;8.98;6.03;;;21.40;99.90;;;;;;5050255;28;20381;-52
2023/06/09 06:49:07;;;;;;;8.55;5.93;;;21.60;99.90;;;;;;5050577;28;20033;-47
2023/06/09 06:51:32;;;;;;;8.25;6.32;;;21.60;99.90;;;;;;5049999;28;20068;-48
2023/06/09 06:53:58;;;;;;;10.30;6.32;;;21.70;99.90;;;;;;5050164;28;20059;-47
2023/06/09 06:56:27;;;;;;;9.52;5.82;;;21.80;99.90;;;;;;5049967;28;20028;-47
2023/06/09 06:58:53;;;;;;;10.70;6.43;;;21.80;99.90;;;;;;5050089;28;20029;-48
2023/06/09 07:01:21;;;;;;;9.68;5.72;;;21.80;99.90;;;;;;5049755;28;20082;-48
2023/06/09 07:03:49;;;;;;;9.07;5.93;;;22.00;99.90;;;;;;5051140;28;20029;-47
2023/06/09 07:06:17;;;;;;;11.07;6.55;;;22.10;99.90;;;;;;5053683;28;20059;-47
2023/06/09 07:08:43;;;;;;;8.70;6.13;;;22.20;99.90;;;;;;5053626;28;20122;-47
2023/06/09 07:11:09;;;;;;;18.77;11.40;;;22.10;99.90;;;;;;5053517;28;20028;-48
2023/06/09 07:13:35;;;;;;;13.07;8.30;;;22.20;99.90;;;;;;5035515;28;20100;-47
2023/06/09 07:16:01;;;;;;;15.07;9.32;;;22.30;99.90;;;;;;5035287;28;20489;-50
2023/06/09 07:18:27;;;;;;;20.02;12.27;;;22.40;99.90;;;;;;5053613;28;20033;-48
2023/06/09 07:20:53;;;;;;;18.15;11.38;;;22.60;99.90;;;;;;5053151;28;20031;-48
2023/06/09 07:23:19;;;;;;;11.88;8.07;;;22.60;99.90;;;;;;5053465;28;20104;-51
2023/06/09 07:25:45;;;;;;;14.35;8.68;;;22.70;99.90;;;;;;5053508;28;20024;-50
2023/06/09 07:28:11;;;;;;;8.90;6.18;;;23.10;99.90;;;;;;5053423;28;20025;-48
2023/06/09 07:30:40;;;;;;;12.65;7.88;;;23.30;99.90;;;;;;5053254;28;20048;-47
2023/06/09 07:33:06;;;;;;;10.50;6.28;;;23.50;99.90;;;;;;5053206;28;20083;-49
2023/06/09 07:35:33;;;;;;;8.48;5.82;;;23.50;99.90;;;;;;5052877;28;20029;-48
2023/06/09 07:37:58;;;;;;;11.07;7.28;;;23.60;99.90;;;;;;5053260;28;20032;-47
2023/06/09 07:40:24;;;;;;;8.70;5.55;;;23.70;99.20;;;;;;5053034;28;20389;-46
2023/06/09 07:42:50;;;;;;;7.40;5.40;;;23.80;98.40;;;;;;5053116;28;20271;-48
2023/06/09 07:45:16;;;;;;;9.20;6.25;;;23.90;97.50;;;;;;5053069;28;20032;-47
2023/06/09 07:47:42;;;;;;;7.65;4.72;;;23.90;97.80;;;;;;5052749;28;20033;-47
2023/06/09 07:50:08;;;;;;;6.85;4.97;;;23.90;98.20;;;;;;5052647;28;20033;-47
2023/06/09 07:52:36;;;;;;;15.65;9.38;;;24.00;98.70;;;;;;5052730;28;20469;-47
2023/06/09 07:55:03;;;;;;;6.15;4.85;;;24.10;97.60;;;;;;5035181;28;20032;-48
2023/06/09 07:57:29;;;;;;;6.13;4.47;;;24.10;97.10;;;;;;5052704;28;20585;-48
2023/06/09 07:59:55;;;;;;;8.23;5.57;;;24.10;97.10;;;;;;5052758;28;20118;-48
2023/06/09 08:02:21;;;;;;;7.13;4.85;;;24.20;96.00;;;;;;5052487;28;20025;-48
2023/06/09 08:04:46;;;;;;;7.55;5.75;;;24.20;96.20;;;;;;5052459;28;20104;-48
2023/06/09 08:07:12;;;;;;;6.38;4.65;;;24.20;97.00;;;;;;5034648;28;20037;-47
2023/06/09 08:09:38;;;;;;;7.72;4.78;;;24.30;98.00;;;;;;5052545;28;20150;-48
2023/06/09 08:12:07;;;;;;;7.20;4.78;;;24.40;96.40;;;;;;5034547;28;20144;-48
2023/06/09 08:14:33;;;;;;;9.73;4.78;;;24.40;96.30;;;;;;5052118;28;20071;-48
2023/06/09 08:16:59;;;;;;;8.55;5.07;;;24.40;96.40;;;;;;5033557;28;20551;-48
2023/06/09 08:19:25;;;;;;;8.15;5.03;;;24.50;96.70;;;;;;5052276;28;20025;-47
2023/06/09 08:21:51;;;;;;;7.15;4.50;;;24.60;95.60;;;;;;5052015;28;20436;-47
2023/06/09 08:24:17;;;;;;;8.30;5.68;;;24.60;96.70;;;;;;5052314;28;20103;-48
2023/06/09 08:26:43;;;;;;;6.25;4.10;;;24.70;96.00;;;;;;5105215;22;20045;-53
2023/06/09 08:29:10;;;;;;;7.78;5.25;;;24.80;96.20;;;;;;5072023;28;20033;-54
2023/06/09 08:31:37;;;;;;;6.78;4.93;;;24.90;95.50;;;;;;5071682;28;20143;-51
2023/06/09 08:34:03;;;;;;;5.97;4.00;;;25.00;95.40;;;;;;5071927;28;20048;-55
2023/06/09 08:36:29;;;;;;;5.15;3.95;;;25.10;94.10;;;;;;5071707;28;20032;-53
2023/06/09 08:38:55;;;;;;;5.38;3.63;;;25.10;93.30;;;;;;5071946;28;20031;-54
2023/06/09 08:41:24;;;;;;;6.57;4.40;;;25.20;94.10;;;;;;5071698;28;20021;-55
2023/06/09 08:43:50;;;;;;;6.90;4.68;;;25.20;94.00;;;;;;5071787;28;20021;-53
2023/06/09 08:46:19;;;;;;;5.47;3.25;;;25.30;94.30;;;;;;5071590;28;20032;-50
2023/06/09 08:48:56;;;;;;;5.75;3.72;;;25.30;92.70;;;;;;5071734;28;20399;-54
2023/06/09 08:51:22;;;;;;;6.78;3.92;;;25.40;92.50;;;;;;5071347;28;20127;-54
2023/06/09 08:53:57;;;;;;;7.75;5.18;;;25.60;92.80;;;;;;5071512;28;20158;-52
2023/06/09 08:56:22;;;;;;;8.25;4.35;;;25.60;92.80;;;;;;5071203;28;20044;-54
2023/06/09 08:58:50;;;;;;;5.50;4.13;;;25.70;92.10;;;;;;5071271;28;20036;-56
2023/06/09 09:01:19;;;;;;;4.88;3.53;;;25.70;92.40;;;;;;5071223;28;20032;-54
2023/06/09 09:03:48;;;;;;;5.15;3.60;;;25.80;93.50;;;;;;5071508;28;20029;-56
2023/06/09 09:06:15;;;;;;;5.53;3.70;;;25.80;91.00;;;;;;5071303;28;20107;-52
2023/06/09 09:08:41;;;;;;;6.50;4.53;;;25.90;91.40;;;;;;5071413;28;20035;-54
2023/06/09 09:11:07;;;;;;;5.20;3.58;;;25.90;91.60;;;;;;5071109;28;20037;-56
2023/06/09 09:13:32;;;;;;;5.07;3.45;;;26.00;90.70;;;;;;5071589;28;20119;-56
2023/06/09 09:16:00;;;;;;;5.20;3.70;;;26.00;91.30;;;;;;5071132;28;20054;-52
2023/06/09 09:18:31;;;;;;;5.53;3.57;;;26.00;91.70;;;;;;5071230;28;20027;-55
2023/06/09 09:20:57;;;;;;;6.03;3.50;;;26.00;89.40;;;;;;5070788;28;20033;-52
2023/06/09 09:23:31;;;;;;;5.32;3.25;;;26.00;90.50;;;;;;5071160;28;20025;-55
2023/06/09 09:25:59;;;;;;;5.80;3.72;;;26.10;89.70;;;;;;5070604;28;20573;-52
2023/06/09 09:28:25;;;;;;;5.85;4.10;;;26.20;90.20;;;;;;5071160;28;20495;-50
2023/06/09 09:30:54;;;;;;;5.95;4.05;;;26.40;90.10;;;;;;5070813;28;20318;-55
2023/06/09 09:33:24;;;;;;;6.40;3.63;;;26.50;87.30;;;;;;5071143;28;20388;-54
2023/06/09 09:35:55;;;;;;;5.90;3.28;;;26.50;86.10;;;;;;5070856;28;20028;-56
2023/06/09 09:38:22;;;;;;;11.15;3.65;;;26.40;87.10;;;;;;5070794;28;20074;-56
2023/06/09 09:40:53;;;;;;;7.28;5.05;;;26.40;85.90;;;;;;5070570;28;20028;-52
2023/06/09 09:43:21;;;;;;;8.23;5.03;;;26.50;85.50;;;;;;5070880;28;20090;-53
2023/06/09 09:45:54;;;;;;;4.20;3.30;;;26.70;85.00;;;;;;5070748;28;20036;-65
2023/06/09 09:48:24;;;;;;;4.47;3.42;;;26.70;83.80;;;;;;5071052;28;20055;-55
2023/06/09 09:50:52;;;;;;;6.18;4.35;;;26.80;82.60;;;;;;5070607;28;20412;-53
2023/06/09 09:53:27;;;;;;;5.25;3.35;;;26.70;84.00;;;;;;5070846;28;20090;-56
2023/06/09 09:55:55;;;;;;;5.13;3.45;;;26.90;84.50;;;;;;5070772;28;20194;-51
2023/06/09 09:58:41;;;;;;;;;;;27.10;77.40;;;;;;5071667;28;20124;-55
2023/06/09 10:01:07;;;;;;;4.18;3.03;;;27.20;77.80;;;;;;5070095;28;19919;-52
2023/06/09 10:03:34;;;;;;;3.83;2.60;;;27.00;77.00;;;;;;5070729;28;20032;-56
2023/06/09 10:06:02;;;;;;;4.82;2.92;;;27.20;75.10;;;;;;5070875;28;20115;-54
2023/06/09 10:08:29;;;;;;;5.22;3.42;;;27.10;74.20;;;;;;5070860;28;20032;-55
2023/06/09 10:10:56;;;;;;;4.40;2.53;;;27.20;75.90;;;;;;5070454;28;20035;-54
2023/06/09 10:13:26;;;;;;;5.10;3.47;;;27.10;73.10;;;;;;5070894;28;20568;-54
2023/06/09 10:15:52;;;;;;;6.07;2.90;;;27.10;75.90;;;;;;5070213;28;20344;-56
2023/06/09 10:18:20;;;;;;;4.28;3.10;;;27.30;75.30;;;;;;5070806;28;20028;-55
2023/06/09 10:20:48;;;;;;;5.75;3.30;;;27.30;74.00;;;;;;5070353;28;20473;-56
2023/06/09 10:23:15;;;;;;;5.93;4.32;;;27.50;74.00;;;;;;5070506;28;20036;-54
2023/06/09 10:25:41;;;;;;;5.05;3.10;;;27.60;74.60;;;;;;5070257;28;20037;-53
2023/06/09 10:28:12;;;;;;;4.40;2.90;;;27.60;70.40;;;;;;5070314;28;20034;-56
2023/06/09 10:30:38;;;;;;;5.97;3.78;;;27.70;70.60;;;;;;5070097;28;20028;-56
2023/06/09 10:33:20;;;;;;;4.82;3.03;;;27.80;71.00;;;;;;5070384;28;20389;-52
2023/06/09 10:35:48;;;;;;;7.22;4.18;;;27.80;70.50;;;;;;5070044;28;20028;-53
2023/06/09 10:38:29;;;;;;;3.85;2.80;;;27.90;69.70;;;;;;5070577;28;20030;-55
2023/06/09 10:41:11;;;;;;;4.22;2.50;;;27.90;67.50;;;;;;5073962;28;20035;-54
2023/06/09 10:43:49;;;;;;;7.35;3.20;;;27.80;68.70;;;;;;5074146;28;20024;-54
2023/06/09 10:46:15;;;;;;;;;;;27.80;70.70;;;;;;5074603;28;20551;-55
2023/06/09 10:48:44;;;;;;;5.93;2.75;;;27.80;68.40;;;;;;5074055;28;19908;-54
2023/06/09 10:51:31;;;;;;;3.75;2.80;;;27.80;66.90;;;;;;5073716;28;20060;-54
2023/06/09 10:54:24;;;;;;;3.78;2.30;;;27.80;67.60;;;;;;5073919;28;20024;-52
2023/06/09 10:57:00;;;;;;;4.03;2.85;;;27.80;67.10;;;;;;5070283;28;20489;-56
2023/06/09 10:59:25;;;;;;;3.03;2.70;;;27.70;68.20;;;;;;5074509;28;20134;-55
2023/06/09 11:02:00;;;;;;;6.57;3.28;;;27.90;67.10;;;;;;5073518;28;20491;-54
2023/06/09 11:04:49;;;;;;;4.85;2.85;;;28.10;67.20;;;;;;5073777;28;20034;-55
2023/06/09 11:07:27;;;;;;;3.72;2.70;;;28.10;67.50;;;;;;5073678;28;20393;-56
2023/06/09 11:09:53;;;;;;;3.72;2.42;;;28.20;66.20;;;;;;5073713;28;20045;-53
2023/06/09 11:12:27;;;;;;;4.32;2.70;;;28.20;66.50;;;;;;5073424;28;20063;-56
2023/06/09 11:14:56;;;;;;;5.47;2.72;;;28.20;66.20;;;;;;5073648;28;20054;-54
2023/06/09 11:17:26;;;;;;;5.30;2.70;;;28.20;67.20;;;;;;5073485;28;20043;-56
2023/06/09 11:20:18;;;;;;;5.70;3.90;;;28.30;68.10;;;;;;5073516;28;20029;-55
2023/06/09 11:22:50;;;;;;;4.53;3.50;;;28.40;70.40;;;;;;5073463;28;20623;-56
2023/06/09 11:25:18;;;;;;;3.67;2.53;;;28.60;70.00;;;;;;5073339;28;20033;-51
2023/06/09 11:27:54;;;;;;;3.42;2.70;;;28.60;69.00;;;;;;5073311;28;20427;-52
2023/06/09 11:30:21;;;;;;;5.57;3.17;;;28.80;68.30;;;;;;5055203;28;20033;-55
2023/06/09 11:32:47;;;;;;;5.53;2.73;;;28.70;67.30;;;;;;5073332;28;20032;-56
2023/06/09 11:35:28;;;;;;;4.30;3.08;;;28.80;67.40;;;;;;5073224;28;20472;-54
2023/06/09 11:38:06;;;;;;;6.05;2.90;;;29.00;66.30;;;;;;5073338;28;20021;-55
2023/06/09 11:40:33;;;;;;;4.95;2.90;;;29.00;66.20;;;;;;5072838;28;20033;-54
2023/06/09 11:43:01;;;;;;;4.90;3.33;;;28.90;66.30;;;;;;5073351;28;20024;-51
2023/06/09 11:45:30;;;;;;;5.68;3.80;;;28.70;66.50;;;;;;5073059;28;20032;-56
2023/06/09 11:47:59;;;;;;;5.80;3.95;;;28.60;67.40;;;;;;5073471;28;20047;-53
2023/06/09 11:50:26;;;;;;;5.85;3.42;;;28.60;67.90;;;;;;5053796;28;20029;-50
2023/06/09 11:53:06;;;;;;;4.03;2.87;;;28.70;66.90;;;;;;5073039;28;20032;-55
2023/06/09 11:55:32;;;;;;;4.10;2.75;;;28.70;67.10;;;;;;5072944;28;20113;-54
2023/06/09 11:57:58;;;;;;;4.57;2.88;;;29.00;64.90;;;;;;5072809;28;20445;-56
2023/06/09 12:00:26;;;;;;;3.95;2.42;;;29.10;65.20;;;;;;5072621;28;20412;-54
2023/06/09 12:02:53;;;;;;;4.43;3.05;;;29.10;65.50;;;;;;5072715;28;20052;-54
2023/06/09 12:05:19;;;;;;;3.30;2.63;;;29.20;66.30;;;;;;5072927;28;20039;-56
2023/06/09 12:07:46;;;;;;;3.80;2.67;;;29.20;65.80;;;;;;5072500;28;20446;-54
2023/06/09 12:10:14;;;;;;;3.28;2.70;;;29.10;65.60;;;;;;5072440;28;20119;-56
2023/06/09 12:12:43;;;;;;;3.67;2.58;;;29.10;65.70;;;;;;5072317;28;20057;-55
2023/06/09 12:15:11;;;;;;;3.47;2.63;;;29.00;65.80;;;;;;5072645;28;20393;-56
2023/06/09 12:17:37;;;;;;;5.03;3.42;;;28.80;65.40;;;;;;5072732;28;20383;-52
2023/06/09 12:20:26;;;;;;;4.30;2.83;;;28.60;65.80;;;;;;5072437;28;20024;-55
2023/06/09 12:22:56;;;;;;;4.35;2.80;;;28.50;65.20;;;;;;5072359;28;20077;-54
2023/06/09 12:25:27;;;;;;;4.43;3.03;;;28.50;66.10;;;;;;5072038;28;20083;-54
2023/06/09 12:27:54;;;;;;;4.57;2.63;;;28.50;66.50;;;;;;5072127;28;20024;-55
2023/06/09 12:30:32;;;;;;;4.45;2.72;;;28.40;66.40;;;;;;5072466;28;20111;-55
2023/06/09 12:33:04;;;;;;;4.40;3.08;;;28.60;66.90;;;;;;5072564;28;20150;-56
2023/06/09 12:35:37;;;;;;;3.95;2.83;;;28.80;65.50;;;;;;5072348;28;20097;-54
2023/06/09 12:38:20;;;;;;;4.22;3.08;;;28.70;65.30;;;;;;5072853;28;20032;-56
2023/06/09 12:40:51;;;;;;;4.28;2.83;;;28.80;65.40;;;;;;5072201;28;20489;-56
2023/06/09 12:43:19;;;;;;;3.45;2.45;;;28.90;65.00;;;;;;5072459;28;20036;-56
2023/06/09 12:45:49;;;;;;;4.93;3.15;;;29.10;64.70;;;;;;5072316;28;20170;-54
2023/06/09 12:48:16;;;;;;;4.47;2.50;;;29.10;64.00;;;;;;5072243;28;20028;-56
2023/06/09 12:50:43;;;;;;;4.78;2.95;;;29.10;62.40;;;;;;5072186;28;20123;-55
2023/06/09 12:53:09;;;;;;;3.67;2.80;;;29.20;63.50;;;;;;5071580;28;20044;-54